createdAt,value
2023-04-11T00:01:50.871Z,80.04
2023-04-11T00:08:22.491Z,80.36
2023-04-11T00:14:58.722Z,80.07
2023-04-11T00:20:49.586Z,80.69
2023-04-11T00:26:48.865Z,81.82
2023-04-11T00:32:46.529Z,81.96
2023-04-11T00:39:38.884Z,81.01
2023-04-11T00:46:32.430Z,81.15
2023-04-11T00:53:05.153Z,81.85
2023-04-11T00:58:33.952Z,81.84
2023-04-11T01:03:51.513Z,80.76
2023-04-11T01:09:26.806Z,80.08
2023-04-11T01:14:59.543Z,79.16
2023-04-11T01:20:21.604Z,79.35
2023-04-11T01:25:33.478Z,79.34
2023-04-11T01:31:00.382Z,79.10
2023-04-11T01:36:39.498Z,79.57
2023-04-11T01:42:04.448Z,79.34
2023-04-11T01:48:23.968Z,79.21
2023-04-11T01:54:02.038Z,78.85
2023-04-11T01:59:12.650Z,78.92
2023-04-11T02:04:29.409Z,79.57
2023-04-11T02:10:32.239Z,79.73
2023-04-11T02:16:07.935Z,79.96
2023-04-11T02:21:53.922Z,80.52
2023-04-11T02:27:23.162Z,80.57
2023-04-11T02:32:43.933Z,80.37
2023-04-11T02:38:06.400Z,79.98
2023-04-11T02:43:54.698Z,79.96
2023-04-11T02:50:26.582Z,80.54
2023-04-11T03:02:56.880Z,79.81
2023-04-11T03:09:02.529Z,79.94
2023-04-11T03:15:01.642Z,79.94
2023-04-11T03:20:14.113Z,80.02
2023-04-11T03:26:08.019Z,80.02
2023-04-11T03:32:59.723Z,79.97
2023-04-11T03:39:32.444Z,80.14
2023-04-11T03:45:54.234Z,80.03
2023-04-11T03:51:56.301Z,80.71
2023-04-11T03:57:38.917Z,80.56
2023-04-11T04:04:11.270Z,80.60
2023-04-11T04:10:13.969Z,81.00
2023-04-11T04:15:55.197Z,81.05
2023-04-11T04:21:37.598Z,81.00
2023-04-11T04:27:00.293Z,81.22
2023-04-11T04:32:25.675Z,81.17
2023-04-11T04:37:50.275Z,81.26
2023-04-11T04:43:18.048Z,81.40
2023-04-11T05:02:01.878Z,81.78
2023-04-11T05:07:19.184Z,82.02
2023-04-11T05:12:26.742Z,82.02
2023-04-11T05:18:21.120Z,82.16
2023-04-11T05:24:03.894Z,82.62
2023-04-11T05:29:31.162Z,83.06
2023-04-11T05:35:32.367Z,82.39
2023-04-11T05:41:51.649Z,81.27
2023-04-11T05:48:22.304Z,80.95
2023-04-11T05:53:45.794Z,80.41
2023-04-11T05:59:07.738Z,79.01
2023-04-11T06:04:25.655Z,78.94
2023-04-11T06:09:41.380Z,79.75
2023-04-11T06:15:40.622Z,78.47
2023-04-11T06:21:02.276Z,77.47
2023-04-11T06:26:52.358Z,77.48
2023-04-11T06:32:29.680Z,77.22
2023-04-11T06:38:53.256Z,76.89
2023-04-11T06:45:16.087Z,76.56
2023-04-11T06:51:29.983Z,75.20
2023-04-11T06:57:28.481Z,74.39
2023-04-11T07:03:45.985Z,73.32
2023-04-11T07:09:53.698Z,70.53
2023-04-11T07:15:23.673Z,68.20
2023-04-11T07:21:01.522Z,69.02
2023-04-11T07:26:51.322Z,69.30
2023-04-11T07:32:28.365Z,70.48
2023-04-11T07:38:00.053Z,71.08
2023-04-11T07:43:42.546Z,70.56
2023-04-11T07:50:05.044Z,71.30
2023-04-11T07:56:00.154Z,71.14
2023-04-11T08:01:21.511Z,70.57
2023-04-11T08:06:57.303Z,69.83
2023-04-11T08:12:17.637Z,68.23
2023-04-11T08:17:38.180Z,67.58
2023-04-11T08:23:10.913Z,66.06
2023-04-11T08:28:21.920Z,66.63
2023-04-11T08:33:57.742Z,64.70
2023-04-11T08:39:11.937Z,63.29
2023-04-11T08:44:43.281Z,63.51
2023-04-11T08:50:06.784Z,62.96
2023-04-11T08:55:32.629Z,61.59
2023-04-11T09:01:43.917Z,59.12
2023-04-11T09:07:34.414Z,58.94
2023-04-11T09:13:18.148Z,59.37
2023-04-11T09:19:03.695Z,58.69
2023-04-11T09:24:35.742Z,59.74
2023-04-11T09:30:00.702Z,60.05
2023-04-11T09:35:28.230Z,58.53
2023-04-11T09:41:09.379Z,58.49
2023-04-11T09:46:23.433Z,57.33
2023-04-11T09:51:56.335Z,52.94
2023-04-11T09:57:18.475Z,52.71
2023-04-11T10:02:38.209Z,53.18
2023-04-11T10:08:33.912Z,53.77
2023-04-11T10:14:05.374Z,51.12
2023-04-11T10:19:35.033Z,51.37
2023-04-11T10:25:19.891Z,49.46
2023-04-11T10:31:39.384Z,49.44
2023-04-11T10:37:55.265Z,47.94
2023-04-11T10:43:44.396Z,45.36
2023-04-11T10:50:16.706Z,46.22
2023-04-11T10:55:35.799Z,46.57
2023-04-11T11:01:21.122Z,46.71
2023-04-11T11:06:51.088Z,44.61
2023-04-11T11:12:29.657Z,43.31
2023-04-11T11:17:43.099Z,41.84
2023-04-11T11:23:56.028Z,40.23
2023-04-11T11:29:31.430Z,38.78
2023-04-11T11:34:38.488Z,38.81
2023-04-11T11:40:05.004Z,38.75
2023-04-11T11:45:57.153Z,39.93
2023-04-11T11:51:14.534Z,37.53
2023-04-11T11:56:17.400Z,39.06
2023-04-11T12:02:14.694Z,39.75
2023-04-11T12:07:57.996Z,40.32
2023-04-11T12:13:34.210Z,40.90
2023-04-11T12:18:57.789Z,41.16
2023-04-11T12:24:12.732Z,41.40
2023-04-11T12:29:41.681Z,40.36
2023-04-11T12:34:54.313Z,38.73
2023-04-11T12:40:11.914Z,39.39
2023-04-11T12:45:49.357Z,39.86
2023-04-11T12:51:10.430Z,39.33
2023-04-11T12:56:16.757Z,40.17
2023-04-11T13:01:18.686Z,39.85
2023-04-11T13:06:52.333Z,41.12
2023-04-11T13:12:07.176Z,41.24
2023-04-11T13:17:36.557Z,42.29
2023-04-11T13:23:00.281Z,43.68
2023-04-11T13:28:09.031Z,44.59
2023-04-11T13:34:10.722Z,45.79
2023-04-11T13:39:35.736Z,46.07
2023-04-11T13:45:00.559Z,46.84
2023-04-11T13:50:22.877Z,47.33
2023-04-11T13:55:41.271Z,47.32
2023-04-11T14:01:15.627Z,47.64
2023-04-11T14:06:42.787Z,48.20
2023-04-11T14:12:08.970Z,48.85
2023-04-11T14:18:18.215Z,50.28
2023-04-11T14:29:42.280Z,52.50
2023-04-11T14:35:20.257Z,54.21
2023-04-11T14:41:34.379Z,55.70
2023-04-11T14:48:47.950Z,58.55
2023-04-11T14:55:50.877Z,62.07
2023-04-11T15:02:54.757Z,64.93
2023-04-11T15:08:27.559Z,66.04
2023-04-11T15:13:41.809Z,67.73
2023-04-11T15:19:09.259Z,69.69
2023-04-11T15:24:20.403Z,69.91
2023-04-11T15:29:25.003Z,69.71
2023-04-11T15:35:18.093Z,70.98
2023-04-11T15:41:06.996Z,72.16
2023-04-11T15:46:11.490Z,72.59
2023-04-11T15:51:41.087Z,72.61
2023-04-11T15:57:17.764Z,72.90
2023-04-11T16:02:24.349Z,73.83
2023-04-11T16:08:08.220Z,74.39
2023-04-11T16:13:33.308Z,73.95
2023-04-11T16:19:06.034Z,74.39
2023-04-11T16:24:42.717Z,74.65
2023-04-11T16:30:25.750Z,74.62
2023-04-11T16:35:34.732Z,75.10
2023-04-11T16:41:37.256Z,74.96
2023-04-11T16:47:59.630Z,74.63
2023-04-11T16:53:16.871Z,74.64
2023-04-11T16:59:27.652Z,74.94
2023-04-11T17:06:14.873Z,74.84
2023-04-11T17:12:54.003Z,75.82
2023-04-11T17:18:54.395Z,75.67
2023-04-11T17:24:39.064Z,75.28
2023-04-11T17:31:00.808Z,74.92
2023-04-11T17:36:35.020Z,74.83
2023-04-11T17:42:48.290Z,74.56
2023-04-11T17:48:33.775Z,74.48
2023-04-11T17:54:43.347Z,74.44
2023-04-11T18:02:05.114Z,74.62
2023-04-11T18:08:15.026Z,75.21
2023-04-11T18:14:21.033Z,75.40
2023-04-11T18:19:58.648Z,75.72
2023-04-11T18:26:07.537Z,76.04
2023-04-11T18:33:11.977Z,76.33
2023-04-11T18:39:57.306Z,76.80
2023-04-11T18:46:57.394Z,77.08
2023-04-11T18:53:45.067Z,77.09
2023-04-11T18:59:39.032Z,77.49
2023-04-11T19:05:54.029Z,77.71
2023-04-11T19:18:49.808Z,77.60
2023-04-11T19:24:59.339Z,77.47
2023-04-11T19:31:26.490Z,77.52
2023-04-11T19:37:17.311Z,77.99
2023-04-11T19:42:23.937Z,78.15
2023-04-11T19:48:16.991Z,78.25
2023-04-11T19:54:03.720Z,78.80
2023-04-11T20:00:01.400Z,78.85
2023-04-11T20:05:50.361Z,78.69
2023-04-11T20:11:59.126Z,78.89
2023-04-11T20:18:24.909Z,79.02
2023-04-11T20:24:51.023Z,79.20
2023-04-11T20:31:34.690Z,79.31
2023-04-11T20:38:06.249Z,79.55
2023-04-11T20:44:28.146Z,78.94
2023-04-11T20:51:31.046Z,79.17
2023-04-11T20:58:09.005Z,79.40
2023-04-11T21:03:59.586Z,79.36
2023-04-11T21:09:43.655Z,79.55
2023-04-11T21:16:25.285Z,79.65
2023-04-11T21:23:07.120Z,79.55
2023-04-11T21:29:31.229Z,79.51
2023-04-11T21:35:19.587Z,79.52
2023-04-11T21:40:57.410Z,79.32
2023-04-11T21:46:31.542Z,79.64
2023-04-11T21:52:29.129Z,79.77
2023-04-11T21:58:03.139Z,79.81
2023-04-11T22:03:23.283Z,80.15
2023-04-11T22:09:33.964Z,80.19
2023-04-11T22:16:20.438Z,80.41
2023-04-11T22:23:24.735Z,80.29
2023-04-11T22:30:14.101Z,80.34
2023-04-11T22:36:14.080Z,80.50
2023-04-11T22:43:03.787Z,80.73
2023-04-11T22:49:44.154Z,80.86
2023-04-11T22:55:48.307Z,80.87
2023-04-11T23:02:15.185Z,81.07
2023-04-11T23:08:00.943Z,81.17
2023-04-11T23:13:40.642Z,81.03
2023-04-11T23:18:59.591Z,81.02
2023-04-11T23:24:33.843Z,80.95
2023-04-11T23:30:21.267Z,80.69
2023-04-11T23:35:52.226Z,80.49
2023-04-11T23:41:54.434Z,80.60
2023-04-11T23:47:47.267Z,80.59
2023-04-11T23:53:07.720Z,80.28
2023-04-11T23:58:22.542Z,80.19
